Time,TemperatureF,DewpointF,PressureIn,WindDirection,WindDirectionDegrees,WindSpeedMPH,WindSpeedGustMPH,Humidity,HourlyPrecipIn,Conditions,Clouds,dailyrainin,SolarRadiationWatts/m^2,SoftwareType,DateUTC
2013-02-16 00:00:00,56.2,52.4,29.98,North,355,1.1,1.1,87,0.00,CLR,,0.00,0.0,WeatherDisplay:10.37,2013-02-16 05:00:00,
2013-02-16 00:05:00,56.0,52.5,29.98,North,355,1.1,0.0,88,0.00,CLR,,0.00,0.0,WeatherDisplay:10.37,2013-02-16 05:05:00,
2013-02-16 00:10:00,56.0,52.5,29.98,North,355,1.1,1.1,88,0.00,CLR,,0.00,0.0,WeatherDisplay:10.37,2013-02-16 05:10:00,
2013-02-16 00:20:00,55.7,52.5,29.98,North,355,2.3,2.3,89,0.00,CLR,,0.00,0.0,WeatherDisplay:10.37,2013-02-16 05:20:00,
2013-02-16 00:43:00,56.3,52.8,29.98,North,355,2.3,2.3,88,0.00,CLR,,0.00,0.0,WeatherDisplay:10.37,2013-02-16 05:43:00,
2013-02-16 00:55:00,56.3,52.5,29.98,North,355,3.4,3.4,87,0.00,CLR,,0.00,0.0,WeatherDisplay:10.37,2013-02-16 05:55:00,
2013-02-16 01:00:00,56.3,52.5,29.98,North,355,3.4,3.4,87,0.00,CLR,,0.00,0.0,WeatherDisplay:10.37,2013-02-16 06:00:00,
2013-02-16 01:05:00,56.3,52.8,29.98,North,355,3.4,3.4,88,0.00,CLR,,0.00,0.0,WeatherDisplay:10.37,2013-02-16 06:05:00,
2013-02-16 01:19:00,56.4,52.9,29.96,North,355,3.4,3.4,88,0.00,CLR,,0.00,0.0,WeatherDisplay:10.37,2013-02-16 06:19:00,
2013-02-16 01:46:00,56.7,52.9,29.96,North,355,1.1,1.1,87,0.00,CLR,,0.00,0.0,WeatherDisplay:10.37,2013-02-16 06:46:00,
2013-02-16 01:56:00,56.8,52.7,29.96,North,355,3.4,3.4,86,0.00,CLR,,0.00,0.0,WeatherDisplay:10.37,2013-02-16 06:56:00,
2013-02-16 02:00:00,56.6,52.8,29.96,North,355,3.4,3.4,87,0.00,CLR,,0.00,0.0,WeatherDisplay:10.37,2013-02-16 07:00:00,
2013-02-16 02:01:00,56.6,52.5,29.96,North,355,3.4,3.4,86,0.00,CLR,,0.00,0.0,WeatherDisplay:10.37,2013-02-16 07:01:00,
2013-02-16 02:06:00,56.5,52.7,29.96,North,355,3.4,3.4,87,0.00,CLR,,0.00,0.0,WeatherDisplay:10.37,2013-02-16 07:06:00,
2013-02-16 02:14:00,56.7,52.6,29.95,North,355,2.3,2.3,86,0.00,CLR,,0.00,0.0,WeatherDisplay:10.37,2013-02-16 07:14:00,
2013-02-16 02:21:00,56.3,52.5,29.95,North,355,3.4,3.4,87,0.00,CLR,,0.00,0.0,WeatherDisplay:10.37,2013-02-16 07:21:00,
2013-02-16 02:45:00,55.8,52.6,29.95,North,360,2.3,2.3,89,0.00,CLR,,0.00,0.0,WeatherDisplay:10.37,2013-02-16 07:45:00,
2013-02-16 02:55:00,55.7,52.5,29.96,North,5,3.4,3.4,89,0.00,CLR,,0.00,0.0,WeatherDisplay:10.37,2013-02-16 07:55:00,
2013-02-16 03:00:00,55.5,52.3,29.96,North,5,4.0,4.0,89,0.00,CLR,,0.00,0.0,WeatherDisplay:10.37,2013-02-16 08:00:00,
2013-02-16 03:05:00,55.4,52.2,29.96,North,5,3.4,3.4,89,0.00,CLR,,0.00,0.0,WeatherDisplay:10.37,2013-02-16 08:05:00,
2013-02-16 03:23:00,54.8,51.0,29.95,North,5,3.4,3.4,87,0.00,CLR,,0.00,0.0,WeatherDisplay:10.37,2013-02-16 08:23:00,
2013-02-16 03:29:00,54.7,50.9,29.95,North,5,4.0,4.0,87,0.00,CLR,,0.00,0.0,WeatherDisplay:10.37,2013-02-16 08:29:00,
2013-02-16 03:40:00,54.4,50.6,29.95,North,5,2.3,2.3,87,0.00,CLR,,0.00,0.0,WeatherDisplay:10.37,2013-02-16 08:40:00,
2013-02-16 03:49:00,54.0,49.6,29.95,North,11,5.8,5.8,85,0.00,CLR,,0.00,0.0,WeatherDisplay:10.37,2013-02-16 08:49:00,
2013-02-16 03:54:00,54.1,49.1,29.95,NNE,12,2.3,2.6,83,0.00,CLR,,0.00,0.0,WeatherDisplay:10.37,2013-02-16 08:54:00,
2013-02-16 03:59:00,54.2,48.2,29.95,NE,44,8.1,8.1,80,0.00,CLR,,0.00,0.0,WeatherDisplay:10.37,2013-02-16 08:59:00,
2013-02-16 04:00:00,54.2,47.8,29.95,North,11,5.8,5.8,79,0.00,CLR,,0.00,0.0,WeatherDisplay:10.37,2013-02-16 09:00:00,
2013-02-16 04:04:00,54.3,47.9,29.95,NNE,17,5.8,5.8,79,0.00,CLR,,0.00,0.0,WeatherDisplay:10.37,2013-02-16 09:04:00,
2013-02-16 04:09:00,54.2,47.8,29.95,North,11,5.8,5.8,79,0.00,CLR,,0.00,0.0,WeatherDisplay:10.37,2013-02-16 09:09:00,
2013-02-16 04:15:00,53.9,47.5,29.95,NNE,12,3.4,3.7,79,0.00,CLR,,0.00,0.0,WeatherDisplay:10.37,2013-02-16 09:15:00,
2013-02-16 04:21:00,53.6,47.2,29.95,NNE,15,3.4,3.4,79,0.00,CLR,,0.00,0.0,WeatherDisplay:10.37,2013-02-16 09:21:00,
2013-02-16 04:32:00,53.0,46.7,29.95,NNE,15,3.4,3.4,79,0.00,CLR,,0.00,0.0,WeatherDisplay:10.37,2013-02-16 09:32:00,
2013-02-16 04:40:00,52.9,46.6,29.95,NNE,32,3.4,3.4,79,0.00,CLR,,0.00,0.0,WeatherDisplay:10.37,2013-02-16 09:40:00,
2013-02-16 04:53:00,52.6,46.9,29.95,NE,34,4.6,4.6,81,0.00,CLR,,0.00,0.0,WeatherDisplay:10.37,2013-02-16 09:53:00,
2013-02-16 04:58:00,52.6,46.9,29.95,NE,34,3.4,3.4,81,0.00,CLR,,0.00,0.0,WeatherDisplay:10.37,2013-02-16 09:58:00,
2013-02-16 05:00:00,52.3,47.3,29.95,NE,34,3.4,3.4,83,0.00,CLR,,0.00,0.0,WeatherDisplay:10.37,2013-02-16 10:00:00,
2013-02-16 05:03:00,52.2,46.9,29.95,NE,34,3.4,3.4,82,0.00,CLR,,0.00,0.0,WeatherDisplay:10.37,2013-02-16 10:03:00,
2013-02-16 05:08:00,52.3,47.3,29.95,NE,34,3.4,3.4,83,0.00,CLR,,0.00,0.0,WeatherDisplay:10.37,2013-02-16 10:08:00,
2013-02-16 05:26:00,51.7,47.6,29.95,NE,34,2.3,2.3,86,0.00,CLR,,0.00,0.0,WeatherDisplay:10.37,2013-02-16 10:26:00,
2013-02-16 05:49:00,51.5,47.8,29.95,NE,34,3.4,3.4,87,0.00,CLR,,0.00,0.0,WeatherDisplay:10.37,2013-02-16 10:49:00,
2013-02-16 05:56:00,51.3,47.6,29.95,NE,34,1.1,1.1,87,0.00,CLR,,0.00,0.0,WeatherDisplay:10.37,2013-02-16 10:56:00,
2013-02-16 06:00:00,50.5,47.4,29.95,NE,34,2.0,2.0,89,0.00,CLR,,0.00,0.0,WeatherDisplay:10.37,2013-02-16 11:00:00,
2013-02-16 06:01:00,51.0,47.6,29.95,NE,34,1.1,1.1,88,0.00,CLR,,0.00,0.0,WeatherDisplay:10.37,2013-02-16 11:01:00,
2013-02-16 06:06:00,50.8,47.4,29.95,NE,34,0.0,0.0,88,0.00,CLR,,0.00,0.0,WeatherDisplay:10.37,2013-02-16 11:06:00,
2013-02-16 06:16:00,50.3,47.2,29.95,NE,34,3.0,3.0,89,0.00,CLR,,0.00,0.0,WeatherDisplay:10.37,2013-02-16 11:16:00,
2013-02-16 06:27:00,50.3,47.8,29.95,NE,34,3.4,3.4,91,0.00,CLR,,0.00,0.0,WeatherDisplay:10.37,2013-02-16 11:27:00,
2013-02-16 06:52:00,49.9,48.0,29.95,NE,34,1.1,1.1,93,0.00,CLR,,0.00,0.0,WeatherDisplay:10.37,2013-02-16 11:52:00,
2013-02-16 06:57:00,49.7,47.8,29.95,NE,34,2.0,2.0,93,0.00,CLR,,0.00,0.0,WeatherDisplay:10.37,2013-02-16 11:57:00,
2013-02-16 07:00:00,49.7,47.8,29.95,NE,34,3.4,3.4,93,0.00,OVC,,0.00,0.0,WeatherDisplay:10.37,2013-02-16 12:00:00,
2013-02-16 07:02:00,49.6,47.7,29.95,NE,34,1.1,0.0,93,0.00,OVC,,0.00,0.0,WeatherDisplay:10.37,2013-02-16 12:02:00,
2013-02-16 07:07:00,49.6,47.7,29.95,NE,34,2.3,2.3,93,0.00,OVC,,0.00,0.0,WeatherDisplay:10.37,2013-02-16 12:07:00,
2013-02-16 07:17:00,50.0,48.1,29.95,NE,34,2.3,2.3,93,0.00,OVC,,0.00,9.0,WeatherDisplay:10.37,2013-02-16 12:17:00,
2013-02-16 07:36:00,50.6,48.7,29.95,NE,34,1.1,1.1,93,0.00,OVC,,0.00,33.0,WeatherDisplay:10.37,2013-02-16 12:36:00,
2013-02-16 07:41:00,50.6,48.7,29.95,NE,34,2.3,0.0,93,0.00,OVC,,0.00,33.0,WeatherDisplay:10.37,2013-02-16 12:41:00,
2013-02-16 07:46:00,50.8,48.8,29.95,NE,34,1.1,1.1,93,0.00,OVC,,0.00,46.0,WeatherDisplay:10.37,2013-02-16 12:46:00,
2013-02-16 07:51:00,50.9,48.9,29.95,NE,34,1.1,0.0,93,0.00,OVC,,0.00,65.0,WeatherDisplay:10.37,2013-02-16 12:51:00,
2013-02-16 07:56:00,51.4,49.4,29.96,NE,34,2.3,2.3,93,0.00,OVC,,0.00,76.0,WeatherDisplay:10.37,2013-02-16 12:56:00,
2013-02-16 08:00:00,52.4,50.1,29.96,NE,34,2.3,2.3,92,0.00,OVC,,0.00,69.0,WeatherDisplay:10.37,2013-02-16 13:00:00,
2013-02-16 08:01:00,51.7,49.5,29.96,NE,34,2.3,2.3,92,0.00,OVC,,0.00,107.0,WeatherDisplay:10.37,2013-02-16 13:01:00,
2013-02-16 08:06:00,52.1,49.8,29.96,NE,34,2.0,2.0,92,0.00,OVC,,0.00,111.0,WeatherDisplay:10.37,2013-02-16 13:06:00,
2013-02-16 08:20:00,53.6,50.7,29.96,NE,34,2.3,2.3,90,0.00,OVC,,0.00,130.0,WeatherDisplay:10.37,2013-02-16 13:20:00,
2013-02-16 08:49:00,56.1,52.3,29.97,NE,34,0.0,0.0,87,0.00,OVC,,0.00,100.0,WeatherDisplay:10.37,2013-02-16 13:49:00,
2013-02-16 08:54:00,56.5,52.4,29.97,NE,34,0.0,0.0,86,0.00,OVC,,0.00,181.0,WeatherDisplay:10.37,2013-02-16 13:54:00,
2013-02-16 08:59:00,57.1,52.6,29.97,NE,34,0.0,0.0,85,0.00,OVC,,0.00,229.0,WeatherDisplay:10.37,2013-02-16 13:59:00,
2013-02-16 09:00:00,59.1,53.3,29.97,NE,34,0.0,0.0,81,0.00,BKN,,0.00,343.0,WeatherDisplay:10.37,2013-02-16 14:00:00,
2013-02-16 09:04:00,58.2,53.7,29.97,NE,34,0.0,0.0,85,0.00,BKN,,0.00,327.0,WeatherDisplay:10.37,2013-02-16 14:04:00,
2013-02-16 09:09:00,59.1,53.3,29.97,NE,34,0.0,0.0,81,0.00,BKN,,0.00,343.0,WeatherDisplay:10.37,2013-02-16 14:09:00,
2013-02-16 09:17:00,59.5,53.3,29.98,NE,34,3.4,3.4,80,0.00,BKN,,0.00,373.0,WeatherDisplay:10.37,2013-02-16 14:17:00,
2013-02-16 09:23:00,60.3,53.4,29.98,WNW,303,3.4,3.4,78,0.00,BKN,,0.00,330.0,WeatherDisplay:10.37,2013-02-16 14:23:00,
2013-02-16 09:39:00,61.6,52.5,29.98,NW,304,4.6,4.6,72,0.00,BKN,,0.00,432.0,WeatherDisplay:10.37,2013-02-16 14:39:00,
2013-02-16 09:52:00,61.6,52.9,29.99,WNW,286,6.9,6.9,73,0.00,BKN,,0.00,469.0,WeatherDisplay:10.37,2013-02-16 14:52:00,
2013-02-16 09:57:00,62.4,53.6,29.99,WNW,286,5.0,5.0,73,0.00,BKN,,0.00,487.0,WeatherDisplay:10.37,2013-02-16 14:57:00,
2013-02-16 10:00:00,63.3,52.6,29.99,WNW,294,11.5,11.5,68,0.00,BKN,,0.00,534.0,WeatherDisplay:10.37,2013-02-16 15:00:00,
2013-02-16 10:02:00,62.8,53.6,29.99,WNW,297,3.4,3.4,72,0.00,BKN,,0.00,508.0,WeatherDisplay:10.37,2013-02-16 15:02:00,
2013-02-16 10:07:00,62.9,52.2,29.99,WNW,298,11.0,11.0,68,0.00,SCT,,0.00,536.0,WeatherDisplay:10.37,2013-02-16 15:07:00,
2013-02-16 10:17:00,64.3,51.0,29.99,WNW,284,9.2,9.2,62,0.00,SCT,,0.00,566.0,WeatherDisplay:10.37,2013-02-16 15:17:00,
2013-02-16 10:22:00,64.6,50.4,30.00,West,273,13.8,13.8,60,0.00,SCT,,0.00,603.0,WeatherDisplay:10.37,2013-02-16 15:22:00,
2013-02-16 10:32:00,64.1,49.0,30.00,WNW,303,14.9,14.9,58,0.00,SCT,,0.00,635.0,WeatherDisplay:10.37,2013-02-16 15:32:00,
2013-02-16 10:46:00,64.9,49.8,30.00,WSW,258,11.5,11.5,58,0.00,SCT,,0.00,682.0,WeatherDisplay:10.37,2013-02-16 15:46:00,
2013-02-16 10:56:00,64.7,49.1,30.00,West,265,11.5,11.5,57,0.00,SCT,,0.00,666.0,WeatherDisplay:10.37,2013-02-16 15:56:00,
2013-02-16 11:00:00,65.4,50.2,30.00,WNW,296,11.5,11.5,58,0.00,SCT,,0.00,715.0,WeatherDisplay:10.37,2013-02-16 16:00:00,
2013-02-16 11:01:00,65.0,49.4,30.00,NW,306,17.3,17.3,57,0.00,SCT,,0.00,673.0,WeatherDisplay:10.37,2013-02-16 16:01:00,
2013-02-16 11:06:00,65.3,49.7,30.00,NW,304,11.5,11.5,57,0.00,SCT,,0.00,612.0,WeatherDisplay:10.37,2013-02-16 16:06:00,
2013-02-16 11:39:00,64.9,49.3,29.99,NW,319,13.8,13.8,57,0.00,SCT,,0.00,694.0,WeatherDisplay:10.37,2013-02-16 16:39:00,
2013-02-16 11:47:00,65.2,50.0,29.99,WNW,303,11.5,11.5,58,0.00,SCT,,0.00,693.0,WeatherDisplay:10.37,2013-02-16 16:47:00,
2013-02-16 11:56:00,66.3,51.1,29.99,WNW,287,9.2,9.2,58,0.00,SCT,,0.00,712.0,WeatherDisplay:10.37,2013-02-16 16:56:00,
2013-02-16 12:00:00,65.8,50.1,29.99,NW,316,11.5,11.5,57,0.00,SCT,,0.00,846.0,WeatherDisplay:10.37,2013-02-16 17:00:00,
2013-02-16 12:01:00,65.7,50.0,29.99,NW,317,14.9,14.9,57,0.00,SCT,,0.00,782.0,WeatherDisplay:10.37,2013-02-16 17:01:00,
2013-02-16 12:06:00,65.8,50.1,29.99,NW,318,14.0,14.0,57,0.00,SCT,,0.00,800.0,WeatherDisplay:10.37,2013-02-16 17:06:00,
2013-02-16 12:44:00,63.1,51.6,29.98,NW,313,14.9,14.9,66,0.00,OVC,,0.00,100.0,WeatherDisplay:10.37,2013-02-16 17:44:00,
2013-02-16 12:56:00,61.9,52.4,29.99,NW,311,11.5,11.5,71,0.00,OVC,,0.00,88.0,WeatherDisplay:10.37,2013-02-16 17:56:00,
2013-02-16 13:00:00,62.1,51.4,29.98,West,279,11.5,11.5,68,0.00,OVC,,0.00,100.0,WeatherDisplay:10.37,2013-02-16 18:00:00,
2013-02-16 13:01:00,61.7,51.8,29.98,WNW,298,15.0,15.0,70,0.00,OVC,,0.00,104.0,WeatherDisplay:10.37,2013-02-16 18:01:00,
2013-02-16 13:06:00,61.8,51.9,29.98,WNW,284,18.0,18.0,70,0.00,OVC,,0.00,174.0,WeatherDisplay:10.37,2013-02-16 18:06:00,
2013-02-16 13:28:00,61.2,50.2,29.99,WNW,296,25.3,25.3,67,0.00,OVC,,0.00,158.0,WeatherDisplay:10.37,2013-02-16 18:28:00,
2013-02-16 13:39:00,61.7,52.6,29.99,North,350,19.5,19.5,72,0.00,OVC,,0.00,243.0,WeatherDisplay:10.37,2013-02-16 18:39:00,
2013-02-16 13:48:00,60.0,52.4,29.99,NNW,333,26.4,26.4,76,0.00,OVC,,0.00,364.0,WeatherDisplay:10.37,2013-02-16 18:48:00,
2013-02-16 13:56:00,60.1,51.0,29.99,West,277,24.1,24.1,72,0.00,OVC,,0.00,353.0,WeatherDisplay:10.37,2013-02-16 18:56:00,
2013-02-16 14:00:00,59.9,48.5,30.00,NNW,328,21.0,21.0,66,0.00,OVC,,0.00,311.0,WeatherDisplay:10.37,2013-02-16 19:00:00,
2013-02-16 14:01:00,60.1,50.3,29.99,WNW,302,19.5,19.5,70,0.00,FEW,,0.00,884.0,WeatherDisplay:10.37,2013-02-16 19:01:00,
2013-02-16 14:06:00,60.8,49.8,30.00,WNW,294,19.5,19.5,67,0.00,FEW,,0.00,318.0,WeatherDisplay:10.37,2013-02-16 19:06:00,
2013-02-16 14:14:00,59.1,48.5,30.00,NW,314,14.9,14.9,68,0.00,OVC,,0.00,279.0,WeatherDisplay:10.37,2013-02-16 19:14:00,
2013-02-16 14:30:00,59.1,47.7,30.00,NNW,346,19.0,19.0,66,0.00,FEW,,0.00,786.0,WeatherDisplay:10.37,2013-02-16 19:30:00,
2013-02-16 14:37:00,58.9,48.0,30.00,NNW,336,23.0,23.0,67,0.00,OVC,,0.00,248.0,WeatherDisplay:10.37,2013-02-16 19:37:00,
2013-02-16 14:49:00,57.8,48.1,30.00,NW,305,20.7,20.7,70,0.00,OVC,,0.00,722.0,WeatherDisplay:10.37,2013-02-16 19:49:00,
2013-02-16 14:56:00,58.5,48.4,30.00,NNW,328,17.3,17.3,69,0.00,FEW,,0.00,742.0,WeatherDisplay:10.37,2013-02-16 19:56:00,
2013-02-16 15:00:00,58.4,48.3,30.01,NW,323,16.1,16.1,69,0.00,CLR,,0.00,267.0,WeatherDisplay:10.37,2013-02-16 20:00:00,
2013-02-16 15:01:00,58.5,48.4,30.00,NNW,345,16.1,16.1,69,0.00,FEW,,0.00,742.0,WeatherDisplay:10.37,2013-02-16 20:01:00,
2013-02-16 15:06:00,58.5,48.7,30.00,WNW,294,11.5,11.5,70,0.00,OVC,,0.00,192.0,WeatherDisplay:10.37,2013-02-16 20:06:00,
2013-02-16 15:16:00,58.1,48.0,30.00,North,5,19.5,19.5,69,0.00,BKN,,0.00,383.0,WeatherDisplay:10.37,2013-02-16 20:16:00,
2013-02-16 15:28:00,58.1,48.0,30.01,NW,320,19.5,19.5,69,0.00,OVC,,0.00,162.0,WeatherDisplay:10.37,2013-02-16 20:28:00,
2013-02-16 15:34:00,57.4,47.7,30.01,WNW,296,17.3,17.3,70,0.00,BKN,,0.00,283.0,WeatherDisplay:10.37,2013-02-16 20:34:00,
2013-02-16 15:56:00,56.7,47.0,30.01,NNW,336,18.4,18.4,70,0.00,BKN,,0.00,237.0,WeatherDisplay:10.37,2013-02-16 20:56:00,
2013-02-16 16:00:00,57.0,46.9,30.01,NW,310,11.5,11.5,69,0.00,OVC,,0.00,183.0,WeatherDisplay:10.37,2013-02-16 21:00:00,
2013-02-16 16:01:00,57.3,47.2,30.01,NW,306,16.0,16.0,69,0.00,BKN,,0.00,216.0,WeatherDisplay:10.37,2013-02-16 21:01:00,
2013-02-16 16:06:00,56.9,46.8,30.01,NW,306,17.3,17.3,69,0.00,OVC,,0.00,149.0,WeatherDisplay:10.37,2013-02-16 21:06:00,
2013-02-16 16:54:00,57.2,46.3,30.01,NW,315,16.1,16.1,67,0.00,BKN,,0.00,114.0,WeatherDisplay:10.37,2013-02-16 21:54:00,
2013-02-16 16:59:00,57.0,46.1,30.01,WNW,294,16.1,16.1,67,0.00,BKN,,0.00,105.0,WeatherDisplay:10.37,2013-02-16 21:59:00,
2013-02-16 17:00:00,56.6,45.4,30.01,NW,326,13.8,13.8,66,0.00,SCT,,0.00,139.0,WeatherDisplay:10.37,2013-02-16 22:00:00,
2013-02-16 17:04:00,56.7,45.5,30.01,NW,309,15.0,15.0,66,0.00,BKN,,0.00,107.0,WeatherDisplay:10.37,2013-02-16 22:04:00,
2013-02-16 17:09:00,56.7,45.5,30.01,WNW,303,17.3,17.3,66,0.00,SCT,,0.00,139.0,WeatherDisplay:10.37,2013-02-16 22:09:00,
2013-02-16 17:56:00,56.8,45.2,30.01,NW,310,20.7,20.7,65,0.00,OVC,,0.00,18.0,WeatherDisplay:10.37,2013-02-16 22:56:00,
2013-02-16 18:00:00,56.9,43.6,30.02,West,279,19.5,19.5,61,0.00,BKN,,0.00,11.0,WeatherDisplay:10.37,2013-02-16 23:00:00,
2013-02-16 18:01:00,56.9,45.3,30.01,NW,313,25.0,25.0,65,0.00,OVC,,0.00,16.0,WeatherDisplay:10.37,2013-02-16 23:01:00,
2013-02-16 18:06:00,56.9,43.6,30.02,NW,306,23.0,23.0,61,0.00,BKN,,0.00,14.0,WeatherDisplay:10.37,2013-02-16 23:06:00,
2013-02-16 18:23:00,56.9,42.3,30.03,WNW,303,25.0,25.0,58,0.00,OVC,,0.00,0.0,WeatherDisplay:10.37,2013-02-16 23:23:00,
2013-02-16 18:28:00,56.7,42.1,30.03,WNW,303,19.5,19.5,58,0.00,OVC,,0.00,0.0,WeatherDisplay:10.37,2013-02-16 23:28:00,
2013-02-16 18:43:00,56.6,42.0,30.03,WNW,299,19.5,19.5,58,0.00,OVC,,0.00,0.0,WeatherDisplay:10.37,2013-02-16 23:43:00,
2013-02-16 18:49:00,56.7,41.6,30.03,WNW,285,11.5,11.5,57,0.00,OVC,,0.00,0.0,WeatherDisplay:10.37,2013-02-16 23:49:00,
2013-02-16 18:56:00,56.7,42.1,30.03,NW,324,18.4,18.4,58,0.00,CLR,,0.00,0.0,WeatherDisplay:10.37,2013-02-16 23:56:00,
2013-02-16 19:00:00,56.7,43.0,30.03,WNW,301,19.5,19.5,60,0.00,CLR,,0.00,0.0,WeatherDisplay:10.37,2013-02-17 00:00:00,
2013-02-16 19:01:00,56.7,43.0,30.03,West,280,20.7,20.7,60,0.00,CLR,,0.00,0.0,WeatherDisplay:10.37,2013-02-17 00:01:00,
2013-02-16 19:06:00,56.7,43.4,30.03,West,271,23.0,23.0,61,0.00,CLR,,0.00,0.0,WeatherDisplay:10.37,2013-02-17 00:06:00,
2013-02-16 19:41:00,56.7,42.1,30.04,NW,304,19.5,19.5,58,0.00,CLR,,0.00,0.0,WeatherDisplay:10.37,2013-02-17 00:41:00,
2013-02-16 19:52:00,56.5,42.3,30.05,WNW,292,18.4,18.4,59,0.00,CLR,,0.00,0.0,WeatherDisplay:10.37,2013-02-17 00:52:00,
2013-02-16 19:57:00,56.6,42.9,30.05,West,275,19.5,19.5,60,0.00,CLR,,0.00,0.0,WeatherDisplay:10.37,2013-02-17 00:57:00,
2013-02-16 20:00:00,56.5,42.3,30.06,WNW,297,19.5,19.5,59,0.00,CLR,,0.00,0.0,WeatherDisplay:10.37,2013-02-17 01:00:00,
2013-02-16 20:02:00,56.5,41.9,30.06,WNW,298,21.9,21.9,58,0.00,CLR,,0.00,0.0,WeatherDisplay:10.37,2013-02-17 01:02:00,
2013-02-16 20:07:00,56.4,42.2,30.05,WNW,288,11.5,11.5,59,0.00,CLR,,0.00,0.0,WeatherDisplay:10.37,2013-02-17 01:07:00,
2013-02-16 20:24:00,56.3,41.7,30.06,NW,321,21.9,21.9,58,0.00,CLR,,0.00,0.0,WeatherDisplay:10.37,2013-02-17 01:24:00,
2013-02-16 20:39:00,56.3,41.3,30.07,NNW,336,13.8,13.8,57,0.00,CLR,,0.00,0.0,WeatherDisplay:10.37,2013-02-17 01:39:00,
2013-02-16 20:46:00,56.3,40.8,30.07,WNW,301,13.8,13.8,56,0.00,CLR,,0.00,0.0,WeatherDisplay:10.37,2013-02-17 01:46:00,
2013-02-16 20:56:00,56.2,41.2,30.08,North,5,18.0,18.0,57,0.00,CLR,,0.00,0.0,WeatherDisplay:10.37,2013-02-17 01:56:00,
2013-02-16 21:00:00,56.1,40.6,30.08,NNW,338,17.3,17.3,56,0.00,CLR,,0.00,0.0,WeatherDisplay:10.37,2013-02-17 02:00:00,
2013-02-16 21:01:00,56.0,40.5,30.08,NW,313,26.4,26.4,56,0.00,CLR,,0.00,0.0,WeatherDisplay:10.37,2013-02-17 02:01:00,
2013-02-16 21:06:00,56.0,41.0,30.08,NW,309,19.5,19.5,57,0.00,CLR,,0.00,0.0,WeatherDisplay:10.37,2013-02-17 02:06:00,
2013-02-16 21:31:00,56.0,40.1,30.09,WNW,296,21.9,21.9,55,0.00,CLR,,0.00,0.0,WeatherDisplay:10.37,2013-02-17 02:31:00,
2013-02-16 21:38:00,55.9,38.5,30.09,NW,304,21.9,21.9,52,0.00,CLR,,0.00,0.0,WeatherDisplay:10.37,2013-02-17 02:38:00,
2013-02-16 21:51:00,55.7,37.3,30.10,WNW,296,18.4,18.4,50,0.00,CLR,,0.00,0.0,WeatherDisplay:10.37,2013-02-17 02:51:00,
2013-02-16 21:56:00,55.5,37.1,30.10,West,281,23.0,23.0,50,0.00,CLR,,0.00,0.0,WeatherDisplay:10.37,2013-02-17 02:56:00,
2013-02-16 22:00:00,55.4,36.0,30.11,WNW,285,19.5,19.5,48,0.00,CLR,,0.00,0.0,WeatherDisplay:10.37,2013-02-17 03:00:00,
2013-02-16 22:01:00,55.5,37.1,30.11,NNW,331,26.4,26.4,50,0.00,CLR,,0.00,0.0,WeatherDisplay:10.37,2013-02-17 03:01:00,
2013-02-16 22:06:00,55.4,36.5,30.11,NW,306,29.9,29.9,49,0.00,CLR,,0.00,0.0,WeatherDisplay:10.37,2013-02-17 03:06:00,
2013-02-16 22:11:00,55.5,36.1,30.10,WNW,290,26.0,26.0,48,0.00,CLR,,0.00,0.0,WeatherDisplay:10.37,2013-02-17 03:11:00,
2013-02-16 22:18:00,55.3,35.9,30.11,NW,312,14.9,14.9,48,0.00,CLR,,0.00,0.0,WeatherDisplay:10.37,2013-02-17 03:18:00,
2013-02-16 22:47:00,55.3,34.9,30.12,NW,306,19.0,19.0,46,0.00,CLR,,0.00,0.0,WeatherDisplay:10.37,2013-02-17 03:47:00,
2013-02-16 22:56:00,55.1,38.3,30.12,NNW,345,18.4,18.4,53,0.00,CLR,,0.00,0.0,WeatherDisplay:10.37,2013-02-17 03:56:00,
2013-02-16 23:00:00,54.0,38.2,30.12,NNW,330,13.8,13.8,55,0.00,CLR,,0.00,0.0,WeatherDisplay:10.37,2013-02-17 04:00:00,
2013-02-16 23:01:00,54.6,38.3,30.12,North,360,13.8,13.8,54,0.00,CLR,,0.00,0.0,WeatherDisplay:10.37,2013-02-17 04:01:00,
2013-02-16 23:06:00,54.2,37.9,30.12,NW,317,16.1,16.1,54,0.00,CLR,,0.00,0.0,WeatherDisplay:10.37,2013-02-17 04:06:00,
2013-02-16 23:21:00,53.7,38.4,30.13,NNW,341,18.4,18.4,56,0.00,CLR,,0.00,0.0,WeatherDisplay:10.37,2013-02-17 04:21:00,
2013-02-16 23:46:00,52.9,37.2,30.14,NW,306,18.4,18.4,55,0.00,CLR,,0.00,0.0,WeatherDisplay:10.37,2013-02-17 04:46:00,
2013-02-16 23:56:00,52.7,36.5,30.15,NW,315,13.8,13.8,54,0.00,CLR,,0.00,0.0,WeatherDisplay:10.37,2013-02-17 04:56:00,